Time;durP1;ratioP1;P1;durP2;ratioP2;P2;SDS_P1;SDS_P2;PMS_P1;PMS_P2;Temp;Humidity;BMP_temperature;BMP_pressure;BME280_temperature;BME280_humidity;BME280_pressure;Samples;Min_cycle;Max_cycle;Signal;HPM_P1;HPM_P2
2023/03/28 00:01:39;;;;;;;4.63;2.70;;;128.90;2252.80;;;;;;5050779;28;20100;-57
2023/03/28 00:04:05;;;;;;;8.25;4.63;;;128.80;2252.80;;;;;;5051417;28;20171;-57
2023/03/28 00:06:31;;;;;;;3.92;3.03;;;128.90;2252.80;;;;;;5051319;28;20056;-68
2023/03/28 00:08:57;;;;;;;4.70;3.30;;;128.90;2252.80;;;;;;5051737;28;20388;-66
2023/03/28 00:11:23;;;;;;;8.45;5.95;;;128.90;2252.80;;;;;;5051496;28;20442;-58
2023/03/28 00:13:59;;;;;;;44.70;27.48;;;128.80;2252.80;;;;;;5051362;28;20391;-66
2023/03/28 00:16:30;;;;;;;4.53;3.10;;;128.80;2252.80;;;;;;5051548;28;20360;-58
2023/03/28 00:18:59;;;;;;;3.85;2.60;;;128.70;2252.80;;;;;;5051347;28;20067;-68
2023/03/28 00:21:28;;;;;;;4.72;2.88;;;128.80;2252.80;;;;;;5051444;28;20025;-57
2023/03/28 00:24:01;;;;;;;5.35;2.80;;;128.80;2252.80;;;;;;5051317;28;20030;-57
2023/03/28 00:26:31;;;;;;;3.42;1.92;;;128.70;2252.80;;;;;;5051678;28;20025;-67
2023/03/28 00:29:00;;;;;;;3.70;2.10;;;128.60;2252.80;;;;;;5051168;28;20063;-57
2023/03/28 00:31:26;;;;;;;5.05;2.83;;;128.50;2252.80;;;;;;5051110;28;20530;-59
2023/03/28 00:33:52;;;;;;;14.75;8.98;;;128.40;2252.80;;;;;;5050633;28;20137;-58
2023/03/28 00:36:21;;;;;;;7.13;4.88;;;128.30;2252.80;;;;;;5051355;28;20058;-57
2023/03/28 00:38:52;;;;;;;13.23;7.75;;;128.30;2252.80;;;;;;5050946;28;20563;-58
2023/03/28 00:41:20;;;;;;;4.28;2.83;;;128.20;2252.80;;;;;;5050954;28;20021;-58
2023/03/28 00:43:50;;;;;;;5.55;3.17;;;128.10;2252.80;;;;;;5051140;28;20021;-57
2023/03/28 00:46:19;;;;;;;5.25;3.30;;;128.00;2252.80;;;;;;5051318;28;20024;-57
2023/03/28 00:48:52;;;;;;;6.78;3.25;;;128.00;2252.80;;;;;;5051157;28;20352;-57
2023/03/28 00:51:22;;;;;;;3.77;2.03;;;128.00;2252.80;;;;;;5051098;28;20021;-58
2023/03/28 00:53:51;;;;;;;5.30;2.67;;;128.00;2252.80;;;;;;5050649;28;20112;-58
2023/03/28 00:56:19;;;;;;;5.40;2.35;;;103.20;2227.20;;;;;;5050188;28;20017;-57
2023/03/28 00:58:47;;;;;;;5.18;2.78;;;103.20;2227.20;;;;;;5050708;28;20057;-57
2023/03/28 01:01:14;;;;;;;7.68;3.92;;;103.20;2227.20;;;;;;5050346;28;20100;-56
2023/03/28 01:03:44;;;;;;;14.82;5.95;;;103.20;2227.20;;;;;;5050524;28;20487;-57
2023/03/28 01:06:13;;;;;;;4.68;2.53;;;103.10;2227.20;;;;;;5050220;28;20032;-56
2023/03/28 01:08:42;;;;;;;4.68;2.78;;;103.10;2227.20;;;;;;5050545;28;20033;-57
2023/03/28 01:11:10;;;;;;;12.75;6.95;;;103.00;2227.20;;;;;;5050278;28;20032;-57
2023/03/28 01:13:40;;;;;;;10.60;4.82;;;103.00;2227.20;;;;;;5049441;28;20037;-57
2023/03/28 01:16:07;;;;;;;4.63;2.08;;;102.90;2227.20;;;;;;5050409;28;20103;-57
2023/03/28 01:18:35;;;;;;;5.25;2.92;;;103.00;2227.20;;;;;;5050431;28;20035;-57
2023/03/28 01:21:22;;;;;;;4.85;2.40;;;102.90;2227.20;;;;;;5050473;28;20478;-57
2023/03/28 01:24:00;;;;;;;5.95;3.83;;;103.00;2227.20;;;;;;5050077;28;20104;-58
2023/03/28 01:26:46;;;;;;;7.80;2.80;;;102.90;2227.20;;;;;;5049834;28;20103;-57
2023/03/28 01:29:12;;;;;;;3.97;2.35;;;102.90;2227.20;;;;;;5049873;28;20406;-58
2023/03/28 01:32:14;;;;;;;3.88;2.50;;;102.80;2227.20;;;;;;5050068;28;20047;-62
2023/03/28 01:35:12;;;;;;;6.97;3.97;;;102.90;2227.20;;;;;;5049588;28;20076;-58
2023/03/28 01:38:06;;;;;;;4.07;1.83;;;102.90;2227.20;;;;;;5047472;28;20422;-62
2023/03/28 01:40:56;;;;;;;3.83;2.33;;;102.80;2227.20;;;;;;5046609;28;20518;-56
2023/03/28 01:43:47;;;;;;;4.90;2.95;;;102.80;2227.20;;;;;;5047119;28;20036;-57
2023/03/28 01:46:24;;;;;;;3.53;2.00;;;102.80;2227.20;;;;;;5047598;28;20051;-57
2023/03/28 01:49:08;;;;;;;5.90;3.55;;;102.80;2227.20;;;;;;5047511;28;20050;-58
2023/03/28 01:51:56;;;;;;;4.45;2.90;;;102.90;2227.20;;;;;;5047603;28;20025;-61
2023/03/28 01:54:21;;;;;;;3.80;2.00;;;102.90;2227.20;;;;;;5047424;28;20052;-57
2023/03/28 01:56:54;;;;;;;5.20;3.90;;;102.90;2227.20;;;;;;5046978;28;20025;-57
2023/03/28 01:59:32;;;;;;;3.90;2.85;;;102.90;2227.20;;;;;;5047061;28;20391;-57
2023/03/28 02:02:21;;;;;;;6.05;2.85;;;102.80;2227.20;;;;;;5046969;28;20040;-58
2023/03/28 02:04:48;;;;;;;10.85;5.30;;;102.90;2227.20;;;;;;5020707;28;20029;-59
2023/03/28 02:07:19;;;;;;;4.10;2.40;;;102.90;2227.20;;;;;;5047553;28;20047;-57
2023/03/28 02:09:47;;;;;;;5.32;2.33;;;102.80;2227.20;;;;;;5034013;28;20047;-57
2023/03/28 02:12:24;;;;;;;3.80;2.45;;;102.90;2227.20;;;;;;5046982;28;20323;-57
2023/03/28 02:14:52;;;;;;;3.45;2.33;;;103.00;2227.20;;;;;;5048780;28;20809;-68
2023/03/28 02:17:20;;;;;;;4.07;2.55;;;102.90;2227.20;;;;;;5049314;28;20032;-58
2023/03/28 02:19:54;;;;;;;6.47;3.80;;;102.90;2227.20;;;;;;5049630;28;20040;-61
2023/03/28 02:22:34;;;;;;;4.13;1.90;;;102.90;2227.20;;;;;;5049219;28;20474;-58
2023/03/28 02:25:00;;;;;;;5.10;3.22;;;103.00;2227.20;;;;;;5048768;28;20060;-58
2023/03/28 02:27:27;;;;;;;4.07;2.00;;;102.90;2227.20;;;;;;5035325;28;20063;-57
2023/03/28 02:29:53;;;;;;;4.28;2.30;;;102.90;2227.20;;;;;;5049177;28;20021;-57
2023/03/28 02:32:23;;;;;;;5.25;2.88;;;102.90;2227.20;;;;;;5049091;28;20040;-56
2023/03/28 02:34:53;;;;;;;4.38;2.30;;;102.90;2227.20;;;;;;5048586;28;20068;-63
2023/03/28 02:37:18;;;;;;;7.18;2.80;;;102.90;2227.20;;;;;;5023632;28;20444;-67
2023/03/28 02:40:11;;;;;;;4.43;2.53;;;102.90;2227.20;;;;;;5049049;28;20116;-69
2023/03/28 02:42:48;;;;;;;5.22;2.63;;;102.90;2227.20;;;;;;5049008;28;20032;-57
2023/03/28 02:45:35;;;;;;;4.82;2.30;;;103.00;2227.20;;;;;;5048657;28;20032;-57
2023/03/28 02:48:24;;;;;;;4.78;2.63;;;102.90;2227.20;;;;;;5048803;28;20029;-57
2023/03/28 02:51:21;;;;;;;4.88;2.35;;;102.90;2227.20;;;;;;5049185;28;20064;-70
2023/03/28 02:54:05;;;;;;;5.18;3.45;;;102.70;2227.20;;;;;;5028052;28;20044;-57
2023/03/28 02:56:45;;;;;;;6.13;2.97;;;102.70;2227.20;;;;;;5048417;28;20430;-70
2023/03/28 02:59:16;;;;;;;5.32;2.00;;;102.70;2227.20;;;;;;5048497;28;20021;-58
2023/03/28 03:01:42;;;;;;;4.47;2.25;;;102.60;2227.20;;;;;;5049071;28;20025;-57
2023/03/28 03:04:08;;;;;;;7.63;3.80;;;102.70;2227.20;;;;;;5048283;28;20040;-56
2023/03/28 03:06:35;;;;;;;4.32;2.10;;;102.60;2227.20;;;;;;5048783;28;20037;-61
2023/03/28 03:09:03;;;;;;;5.20;2.20;;;102.60;2227.20;;;;;;5047327;28;20033;-57
2023/03/28 03:11:29;;;;;;;11.82;9.57;;;102.50;2227.20;;;;;;5036408;28;20021;-56
2023/03/28 03:13:56;;;;;;;4.00;2.47;;;102.50;2227.20;;;;;;5048371;28;20154;-55
2023/03/28 03:16:22;;;;;;;6.80;3.40;;;102.50;2227.20;;;;;;5048828;28;20029;-67
2023/03/28 03:18:48;;;;;;;6.97;2.55;;;102.40;2227.20;;;;;;5048531;28;20111;-59
2023/03/28 03:21:14;;;;;;;5.70;2.72;;;102.40;2227.20;;;;;;5048952;28;20110;-56
2023/03/28 03:23:40;;;;;;;5.72;2.30;;;102.40;2227.20;;;;;;5048492;28;20025;-56
2023/03/28 03:26:06;;;;;;;8.43;2.65;;;102.40;2227.20;;;;;;5048879;28;20032;-69
2023/03/28 03:28:32;;;;;;;4.65;2.08;;;77.70;2227.20;;;;;;5048306;28;20032;-65
2023/03/28 03:30:57;;;;;;;3.97;2.20;;;102.40;2227.20;;;;;;5039764;28;20026;-62
2023/03/28 03:33:23;;;;;;;6.40;2.50;;;102.40;2227.20;;;;;;5042862;28;20108;-58
2023/03/28 03:35:50;;;;;;;9.98;6.07;;;102.40;2227.20;;;;;;5048518;28;20028;-67
2023/03/28 03:38:15;;;;;;;4.75;2.47;;;102.40;2227.20;;;;;;5052250;28;20017;-57
2023/03/28 03:40:41;;;;;;;4.70;2.88;;;77.70;2227.20;;;;;;5051581;28;20021;-69
2023/03/28 03:43:07;;;;;;;5.18;2.45;;;77.70;2227.20;;;;;;5052355;28;20035;-57
2023/03/28 03:45:32;;;;;;;6.30;2.65;;;102.40;2227.20;;;;;;5052223;28;20021;-58
2023/03/28 03:47:58;;;;;;;4.30;2.60;;;102.40;2227.20;;;;;;5051842;28;20061;-57
2023/03/28 03:50:24;;;;;;;4.93;2.83;;;77.70;2227.20;;;;;;5052102;28;20029;-57
2023/03/28 03:52:50;;;;;;;6.13;2.65;;;77.70;2227.20;;;;;;5051578;28;20064;-57
2023/03/28 03:55:15;;;;;;;5.28;2.35;;;77.60;2227.20;;;;;;5052057;28;20048;-57
2023/03/28 03:57:41;;;;;;;5.88;3.28;;;77.60;2227.20;;;;;;5051325;28;20025;-57
2023/03/28 04:00:10;;;;;;;5.53;2.78;;;77.60;2227.20;;;;;;5051955;28;20029;-57
2023/03/28 04:02:37;;;;;;;4.28;2.30;;;77.60;2227.20;;;;;;5050674;28;20043;-68
2023/03/28 04:05:03;;;;;;;7.38;2.97;;;77.50;2227.20;;;;;;5051677;28;20060;-57
2023/03/28 04:07:29;;;;;;;5.90;2.72;;;77.50;2227.20;;;;;;5051543;28;20108;-58
2023/03/28 04:09:55;;;;;;;4.32;2.83;;;77.50;2227.20;;;;;;5051907;28;20074;-59
2023/03/28 04:12:21;;;;;;;5.72;3.10;;;77.50;2227.20;;;;;;5050816;28;20506;-58
2023/03/28 04:14:47;;;;;;;3.58;2.83;;;77.40;2227.20;;;;;;5051687;28;20120;-60
2023/03/28 04:17:14;;;;;;;5.30;2.75;;;77.50;2227.20;;;;;;5051212;28;20044;-57
2023/03/28 04:19:40;;;;;;;6.90;2.55;;;77.50;2227.20;;;;;;5051878;28;20029;-58
2023/03/28 04:22:11;;;;;;;8.25;2.90;;;77.50;2227.20;;;;;;5051597;28;20032;-57
2023/03/28 04:24:40;;;;;;;8.18;2.50;;;77.50;2227.20;;;;;;5051524;28;20477;-57
2023/03/28 04:27:08;;;;;;;6.38;3.20;;;77.50;2227.20;;;;;;5050950;28;20045;-57
2023/03/28 04:29:34;;;;;;;6.35;3.28;;;77.50;2227.20;;;;;;5051218;28;20437;-58
2023/03/28 04:32:01;;;;;;;7.72;3.13;;;77.50;2227.20;;;;;;5050890;28;20090;-58
2023/03/28 04:34:29;;;;;;;7.18;3.88;;;77.50;2227.20;;;;;;5050831;28;20059;-57
2023/03/28 04:37:00;;;;;;;9.20;3.78;;;77.60;2227.20;;;;;;5051060;28;20025;-58
2023/03/28 04:39:30;;;;;;;4.18;3.10;;;77.50;2227.20;;;;;;5051093;28;20063;-66
2023/03/28 04:42:00;;;;;;;3.67;2.92;;;77.50;2227.20;;;;;;5050967;28;20048;-57
2023/03/28 04:44:27;;;;;;;5.53;2.58;;;77.50;2227.20;;;;;;5051263;28;20404;-69
2023/03/28 04:46:53;;;;;;;4.60;2.60;;;77.50;2227.20;;;;;;5050323;28;20404;-57
2023/03/28 04:49:20;;;;;;;4.43;2.50;;;77.60;2227.20;;;;;;5036375;28;20092;-58
2023/03/28 04:51:46;;;;;;;5.38;3.85;;;77.70;2227.20;;;;;;5051041;28;20021;-56
2023/03/28 04:54:12;;;;;;;6.68;2.95;;;77.60;2227.20;;;;;;5050223;28;20043;-57
2023/03/28 04:56:37;;;;;;;4.75;2.35;;;77.60;2227.20;;;;;;5050684;28;20499;-67
2023/03/28 04:59:03;;;;;;;5.95;2.65;;;77.70;2227.20;;;;;;5050842;28;20032;-58
2023/03/28 05:01:29;;;;;;;5.93;3.20;;;77.70;2227.20;;;;;;5050518;28;20100;-58
2023/03/28 05:03:55;;;;;;;6.22;2.95;;;77.70;2227.20;;;;;;5050267;28;20029;-58
2023/03/28 05:06:21;;;;;;;8.75;5.55;;;77.70;2227.20;;;;;;5041171;28;20088;-58
2023/03/28 05:08:46;;;;;;;5.07;3.30;;;102.40;2227.20;;;;;;5038081;28;20053;-58
2023/03/28 05:11:12;;;;;;;6.93;3.55;;;102.80;2227.20;;;;;;5030261;28;20020;-64
2023/03/28 05:13:38;;;;;;;8.02;4.55;;;102.80;2227.20;;;;;;5048055;28;20044;-59
2023/03/28 05:16:04;;;;;;;4.85;3.33;;;102.80;2227.20;;;;;;5050147;28;20031;-57
2023/03/28 05:18:30;;;;;;;8.90;4.38;;;102.70;2227.20;;;;;;5050197;28;20482;-57
2023/03/28 05:20:55;;;;;;;6.22;3.67;;;102.80;2227.20;;;;;;5050709;28;20025;-57
2023/03/28 05:23:21;;;;;;;10.98;6.47;;;102.70;2227.20;;;;;;5049039;28;20033;-63
2023/03/28 05:25:51;;;;;;;8.45;5.00;;;102.60;2227.20;;;;;;5050450;28;20094;-69
2023/03/28 05:28:17;;;;;;;14.13;8.95;;;102.70;2227.20;;;;;;5050084;28;20032;-57
2023/03/28 05:30:42;;;;;;;68.47;37.60;;;102.70;2227.20;;;;;;5049625;28;20104;-65
2023/03/28 05:33:08;;;;;;;15.13;7.35;;;102.80;2227.20;;;;;;5049729;28;20059;-56
2023/03/28 05:35:36;;;;;;;10.32;5.50;;;102.80;2227.20;;;;;;5049670;28;20060;-59
2023/03/28 05:38:02;;;;;;;7.45;3.92;;;102.80;2227.20;;;;;;5049073;28;20027;-67
2023/03/28 05:40:28;;;;;;;18.23;13.95;;;103.00;2227.20;;;;;;5048368;28;20575;-58
2023/03/28 05:42:54;;;;;;;14.48;8.25;;;128.00;2252.80;;;;;;5050168;28;20029;-64
2023/03/28 05:45:20;;;;;;;38.50;24.38;;;128.50;2252.80;;;;;;5049721;28;20390;-59
2023/03/28 05:47:45;;;;;;;27.65;16.48;;;128.50;2252.80;;;;;;5049228;28;20468;-68
2023/03/28 05:50:11;;;;;;;45.92;23.38;;;128.80;2252.80;;;;;;5049300;28;20033;-57
2023/03/28 05:52:37;;;;;;;11.02;4.68;;;154.00;2252.80;;;;;;5049882;28;20033;-56
2023/03/28 05:55:03;;;;;;;15.48;9.25;;;154.40;2252.80;;;;;;5049366;28;20483;-59
2023/03/28 05:57:29;;;;;;;28.75;16.73;;;154.50;2252.80;;;;;;5048937;28;20037;-57
2023/03/28 05:59:55;;;;;;;13.85;6.50;;;179.80;2252.80;;;;;;5049031;28;20478;-60
2023/03/28 06:02:23;;;;;;;31.65;14.93;;;230.80;2048.00;;;;;;5049726;28;20112;-69
2023/03/28 06:04:51;;;;;;;11.23;4.60;;;230.40;2048.00;;;;;;5036849;28;20033;-58
2023/03/28 06:07:17;;;;;;;13.63;9.02;;;205.00;2150.40;;;;;;5042641;28;20375;-58
2023/03/28 06:09:42;;;;;;;11.05;5.72;;;230.80;1996.80;;;;;;5034656;28;20033;-64
2023/03/28 06:12:08;;;;;;;5.95;3.97;;;256.70;1894.40;;;;;;5049128;28;20470;-61
2023/03/28 06:14:34;;;;;;;8.00;5.28;;;282.20;1843.20;;;;;;5049321;28;20115;-60
2023/03/28 06:17:00;;;;;;;9.60;6.43;;;332.80;1740.80;;;;;;5049298;28;20031;-60
2023/03/28 06:19:25;;;;;;;5.07;4.28;;;333.40;1715.20;;;;;;5049040;28;20466;-60
2023/03/28 06:21:51;;;;;;;9.27;6.47;;;358.60;1664.00;;;;;;5049286;28;20029;-59
2023/03/28 06:24:17;;;;;;;10.45;5.53;;;358.90;1612.80;;;;;;5049508;28;20024;-60
2023/03/28 06:26:42;;;;;;;8.50;4.28;;;384.00;1561.60;;;;;;5048148;28;20407;-60
2023/03/28 06:29:08;;;;;;;10.40;8.50;;;384.10;1536.00;;;;;;5047786;28;20075;-60
2023/03/28 06:31:34;;;;;;;12.30;6.95;;;384.60;1510.40;;;;;;5048135;28;20112;-58
2023/03/28 06:34:00;;;;;;;7.68;5.32;;;384.10;1510.40;;;;;;5048424;28;20071;-61
2023/03/28 06:36:25;;;;;;;11.15;6.32;;;384.30;1536.00;;;;;;5049206;28;20056;-62
2023/03/28 06:38:52;;;;;;;6.60;5.85;;;358.80;1587.20;;;;;;5049346;28;20721;-62
2023/03/28 06:41:19;;;;;;;6.72;3.83;;;333.50;1612.80;;;;;;5048522;28;20095;-61
2023/03/28 06:43:45;;;;;;;13.70;9.57;;;333.00;1612.80;;;;;;5048266;28;20044;-64
2023/03/28 06:46:12;;;;;;;5.70;4.10;;;282.50;1689.60;;;;;;5049143;28;20090;-61
2023/03/28 06:48:38;;;;;;;7.95;5.55;;;332.80;1664.00;;;;;;5049051;28;20151;-64
2023/03/28 06:51:04;;;;;;;5.10;4.57;;;359.10;1536.00;;;;;;5048883;28;20091;-62
2023/03/28 06:53:30;;;;;;;5.00;4.47;;;358.50;1561.60;;;;;;5048928;28;20021;-60
2023/03/28 06:55:57;;;;;;;7.00;5.28;;;384.40;1510.40;;;;;;5039226;28;20030;-64
2023/03/28 06:58:23;;;;;;;13.60;10.10;;;359.30;1510.40;;;;;;5038548;28;20049;-63
2023/03/28 07:00:51;;;;;;;8.63;5.68;;;409.90;1459.20;;;;;;5045327;28;20033;-64
2023/03/28 07:03:17;;;;;;;6.72;5.25;;;435.30;1433.60;;;;;;5048803;28;20087;-63
2023/03/28 07:05:43;;;;;;;10.43;7.25;;;384.90;1459.20;;;;;;5048899;28;20483;-63
2023/03/28 07:08:10;;;;;;;16.08;14.57;;;435.90;1382.40;;;;;;5047193;28;20523;-62
2023/03/28 07:10:38;;;;;;;9.13;6.63;;;410.20;1433.60;;;;;;5050150;28;20482;-62
2023/03/28 07:13:05;;;;;;;7.55;4.85;;;358.50;1561.60;;;;;;5052260;28;20478;-62
2023/03/28 07:15:31;;;;;;;11.05;6.70;;;308.00;1612.80;;;;;;5052346;28;20056;-62
2023/03/28 07:17:57;;;;;;;9.27;6.10;;;282.30;1664.00;;;;;;5052902;28;20056;-62
2023/03/28 07:20:23;;;;;;;17.20;9.98;;;307.50;1715.20;;;;;;5052210;28;20104;-62
2023/03/28 07:22:49;;;;;;;12.40;8.18;;;282.00;1715.20;;;;;;5026287;28;20531;-62
2023/03/28 07:25:15;;;;;;;8.88;5.88;;;256.60;1715.20;;;;;;5052649;28;20108;-62
2023/03/28 07:27:40;;;;;;;10.40;6.75;;;231.00;1766.40;;;;;;5051933;28;20391;-63
2023/03/28 07:30:08;;;;;;;11.25;7.65;;;230.80;1817.60;;;;;;5052813;28;20025;-62
2023/03/28 07:32:35;;;;;;;31.33;23.58;;;230.60;1868.80;;;;;;5052555;28;20032;-62
2023/03/28 07:35:02;;;;;;;7.85;4.95;;;256.20;1792.00;;;;;;5051426;28;20064;-62
2023/03/28 07:37:28;;;;;;;10.23;5.60;;;307.20;1664.00;;;;;;5052225;28;20075;-62
2023/03/28 07:39:55;;;;;;;8.40;3.17;;;307.90;1612.80;;;;;;5052308;28;20029;-63
2023/03/28 07:42:21;;;;;;;7.13;3.33;;;282.30;1638.40;;;;;;5051872;28;20360;-62
2023/03/28 07:44:47;;;;;;;8.65;6.00;;;256.30;1715.20;;;;;;5051887;28;20154;-63
2023/03/28 07:47:13;;;;;;;10.38;5.70;;;256.90;1689.60;;;;;;5052363;28;20112;-61
2023/03/28 07:49:39;;;;;;;10.32;6.75;;;256.30;1715.20;;;;;;5051655;28;20028;-61
2023/03/28 07:52:05;;;;;;;9.30;5.18;;;256.10;1766.40;;;;;;5051952;28;20175;-61
2023/03/28 07:54:32;;;;;;;14.45;9.10;;;230.80;1792.00;;;;;;5051558;28;20538;-61
2023/03/28 07:56:58;;;;;;;12.02;8.45;;;230.50;1817.60;;;;;;5051537;28;20097;-61
2023/03/28 07:59:25;;;;;;;11.57;7.28;;;256.60;1766.40;;;;;;5051722;28;20495;-62
2023/03/28 08:01:51;;;;;;;8.00;3.15;;;282.40;1664.00;;;;;;5051892;28;20026;-61
2023/03/28 08:04:17;;;;;;;9.30;4.72;;;307.20;1664.00;;;;;;5052215;28;20116;-62
2023/03/28 08:06:44;;;;;;;7.10;5.22;;;281.70;1689.60;;;;;;5051931;28;20013;-62
2023/03/28 08:09:14;;;;;;;6.57;5.30;;;256.50;1689.60;;;;;;5051471;28;20110;-62
2023/03/28 08:11:41;;;;;;;10.55;6.72;;;231.10;1740.80;;;;;;5051440;28;20023;-62
2023/03/28 08:14:10;;;;;;;7.15;5.20;;;281.80;1689.60;;;;;;5051480;28;20037;-62
2023/03/28 08:16:36;;;;;;;7.03;4.93;;;281.70;1638.40;;;;;;5051674;28;20482;-62
2023/03/28 08:19:02;;;;;;;9.02;5.55;;;256.60;1689.60;;;;;;5051128;28;20065;-62
2023/03/28 08:21:31;;;;;;;6.53;4.57;;;256.10;1740.80;;;;;;5051294;28;20043;-62
2023/03/28 08:23:57;;;;;;;11.40;8.13;;;231.30;1740.80;;;;;;5051214;28;20060;-62
2023/03/28 08:26:23;;;;;;;56.50;43.53;;;231.20;1766.40;;;;;;5050622;28;20025;-62
2023/03/28 08:28:50;;;;;;;10.18;7.00;;;231.10;1766.40;;;;;;5051373;28;20048;-62
2023/03/28 08:31:16;;;;;;;11.40;9.52;;;230.90;1766.40;;;;;;5051676;28;20482;-62
2023/03/28 08:33:43;;;;;;;7.75;5.03;;;281.70;1664.00;;;;;;5050634;28;20049;-62
2023/03/28 08:36:13;;;;;;;42.75;38.30;;;256.60;1664.00;;;;;;5051372;28;20070;-62
2023/03/28 08:38:40;;;;;;;6.47;4.60;;;256.40;1689.60;;;;;;5050799;28;20096;-61
2023/03/28 08:41:20;;;;;;;16.42;10.60;;;256.20;1715.20;;;;;;5051031;28;20021;-62
2023/03/28 08:43:49;;;;;;;15.40;10.50;;;256.90;1689.60;;;;;;5051288;28;20120;-60
2023/03/28 08:46:18;;;;;;;12.52;9.40;;;281.60;1689.60;;;;;;5051296;28;20057;-62
2023/03/28 08:48:45;;;;;;;5.80;3.67;;;256.50;1715.20;;;;;;5051203;28;20111;-63
2023/03/28 08:51:19;;;;;;;6.22;4.00;;;230.90;1792.00;;;;;;5050707;28;20021;-61
2023/03/28 08:54:07;;;;;;;6.50;3.40;;;205.70;1817.60;;;;;;5050877;28;20356;-61
2023/03/28 08:56:37;;;;;;;10.80;8.07;;;205.70;1843.20;;;;;;5048054;28;20029;-62
2023/03/28 08:59:11;;;;;;;8.88;4.82;;;231.00;1766.40;;;;;;5048679;28;20041;-61
2023/03/28 09:01:38;;;;;;;12.98;6.93;;;256.00;1740.80;;;;;;5022377;28;20072;-63
2023/03/28 09:04:04;;;;;;;6.60;4.57;;;231.20;1740.80;;;;;;5048046;28;20064;-62
2023/03/28 09:06:39;;;;;;;8.30;4.20;;;231.00;1740.80;;;;;;5048275;28;20033;-62
2023/03/28 09:09:15;;;;;;;8.15;5.10;;;230.70;1766.40;;;;;;5047670;28;20549;-62
2023/03/28 09:11:49;;;;;;;12.65;8.23;;;230.60;1792.00;;;;;;5047802;28;20083;-61
2023/03/28 09:14:47;;;;;;;12.65;8.23;;;230.70;1792.00;;;;;;5047951;28;20041;-61
2023/03/28 09:17:46;;;;;;;6.05;4.38;;;230.40;1817.60;;;;;;4969459;28;20058;-62
2023/03/28 09:20:46;;;;;;;10.40;4.63;;;230.50;1766.40;;;;;;4969108;28;20375;-61
2023/03/28 09:23:34;;;;;;;6.43;3.53;;;230.60;1792.00;;;;;;4959990;28;20034;-62
2023/03/28 09:26:17;;;;;;;7.32;4.75;;;230.70;1792.00;;;;;;4968738;28;20113;-62
2023/03/28 09:28:43;;;;;;;;;;;230.70;1740.80;;;;;;4969524;28;20043;-62
2023/03/28 09:31:16;;;;;;;9.80;6.15;;;230.50;1715.20;;;;;;4968990;28;19913;-62
2023/03/28 09:33:44;;;;;;;12.02;7.30;;;230.60;1766.40;;;;;;4977996;28;20560;-62
2023/03/28 09:36:14;;;;;;;11.88;5.65;;;230.90;1740.80;;;;;;4988676;28;20125;-61
2023/03/28 09:38:50;;;;;;;8.32;5.38;;;231.00;1715.20;;;;;;4988125;28;20117;-61
2023/03/28 09:41:36;;;;;;;16.52;8.77;;;231.00;1740.80;;;;;;4988559;28;20489;-62
2023/03/28 09:44:05;;;;;;;7.18;3.80;;;231.10;1766.40;;;;;;4971756;28;20427;-61
2023/03/28 09:46:50;;;;;;;5.07;3.03;;;230.80;1792.00;;;;;;4988192;28;20030;-62
2023/03/28 09:49:18;;;;;;;6.55;3.03;;;230.70;1792.00;;;;;;4988662;28;20026;-61
2023/03/28 09:51:45;;;;;;;7.82;4.07;;;230.80;1766.40;;;;;;4988238;28;20507;-64
2023/03/28 09:54:11;;;;;;;9.70;4.10;;;230.70;1766.40;;;;;;5033353;28;20136;-62
2023/03/28 09:56:40;;;;;;;11.40;7.30;;;230.60;1740.80;;;;;;5049395;28;20028;-62
2023/03/28 09:59:23;;;;;;;11.00;6.55;;;230.50;1766.40;;;;;;5049739;28;20032;-62
2023/03/28 10:01:51;;;;;;;5.22;4.32;;;231.20;1740.80;;;;;;5049337;28;20029;-62
2023/03/28 10:04:38;;;;;;;11.07;6.43;;;231.00;1740.80;;;;;;5049735;28;20037;-61
2023/03/28 10:07:12;;;;;;;5.13;2.90;;;256.10;1715.20;;;;;;5049432;28;20041;-62
2023/03/28 10:09:52;;;;;;;8.60;5.43;;;256.00;1715.20;;;;;;5049388;28;20151;-62
2023/03/28 10:12:30;;;;;;;6.55;4.47;;;231.30;1740.80;;;;;;5049472;28;20024;-62
2023/03/28 10:14:56;;;;;;;9.35;6.65;;;231.10;1740.80;;;;;;5049505;28;20029;-62
2023/03/28 10:17:36;;;;;;;8.55;5.93;;;231.10;1715.20;;;;;;5049031;28;20028;-61
2023/03/28 10:20:22;;;;;;;12.30;4.18;;;256.30;1715.20;;;;;;5048730;28;20120;-62
2023/03/28 10:22:50;;;;;;;7.13;3.65;;;256.40;1689.60;;;;;;5022969;28;20017;-62
2023/03/28 10:25:26;;;;;;;5.20;3.70;;;256.20;1715.20;;;;;;5049482;28;20047;-63
2023/03/28 10:27:51;;;;;;;6.28;3.35;;;256.00;1689.60;;;;;;5049210;28;20018;-62
2023/03/28 10:30:25;;;;;;;9.48;7.00;;;256.00;1689.60;;;;;;5049084;28;20356;-62
2023/03/28 10:33:16;;;;;;;12.27;7.97;;;256.00;1715.20;;;;;;5049073;28;20502;-61
2023/03/28 10:35:46;;;;;;;7.60;3.58;;;256.40;1664.00;;;;;;5048476;28;20041;-62
2023/03/28 10:38:15;;;;;;;8.93;3.63;;;256.30;1612.80;;;;;;5049002;28;20063;-63
2023/03/28 10:40:41;;;;;;;7.95;5.40;;;231.30;1612.80;;;;;;5048402;28;20048;-63
2023/03/28 10:43:14;;;;;;;9.70;3.65;;;231.00;1664.00;;;;;;5049002;28;20053;-61
2023/03/28 10:45:45;;;;;;;9.80;5.10;;;230.90;1689.60;;;;;;5048720;28;20116;-61
2023/03/28 10:48:20;;;;;;;12.38;5.65;;;230.90;1715.20;;;;;;5048574;28;20083;-61
2023/03/28 10:50:48;;;;;;;9.35;4.57;;;230.60;1689.60;;;;;;5049589;28;20057;-61
2023/03/28 10:53:19;;;;;;;6.60;4.18;;;230.40;1689.60;;;;;;5048997;28;20025;-61
2023/03/28 10:56:09;;;;;;;10.95;4.43;;;230.40;1715.20;;;;;;5049008;28;20494;-61
2023/03/28 10:58:39;;;;;;;7.50;3.83;;;230.70;1715.20;;;;;;5040823;28;20021;-62
2023/03/28 11:01:30;;;;;;;4.07;2.65;;;230.60;1740.80;;;;;;5044561;28;20029;-62
2023/03/28 11:04:43;;;;;;;11.07;4.43;;;230.50;1715.20;;;;;;5048486;28;20108;-62
2023/03/28 11:07:50;;;;;;;7.75;5.22;;;230.80;1689.60;;;;;;5048371;28;20426;-62
2023/03/28 11:10:23;;;;;;;11.82;5.93;;;231.10;1612.80;;;;;;5048841;28;20028;-61
2023/03/28 11:12:51;;;;;;;9.77;4.90;;;231.00;1638.40;;;;;;5047540;28;20542;-63
2023/03/28 11:15:23;;;;;;;37.85;20.05;;;230.90;1638.40;;;;;;5041059;28;20120;-63
2023/03/28 11:18:22;;;;;;;8.57;6.07;;;230.90;1664.00;;;;;;5048824;28;20021;-63
2023/03/28 11:21:15;;;;;;;10.93;6.32;;;230.90;1664.00;;;;;;5048593;28;20490;-62
2023/03/28 11:24:00;;;;;;;5.17;2.60;;;230.70;1689.60;;;;;;5048232;28;20028;-61
2023/03/28 11:26:44;;;;;;;10.65;4.72;;;230.50;1740.80;;;;;;5048425;28;20644;-62
2023/03/28 11:29:44;;;;;;;9.50;6.82;;;205.40;1715.20;;;;;;5047879;28;20021;-62
2023/03/28 11:32:26;;;;;;;9.10;5.95;;;205.70;1689.60;;;;;;5048189;28;20090;-62
2023/03/28 11:35:16;;;;;;;10.75;7.15;;;230.50;1689.60;;;;;;5047893;28;20056;-61
2023/03/28 11:37:50;;;;;;;10.60;7.53;;;230.60;1715.20;;;;;;5048583;28;20029;-62
2023/03/28 11:40:54;;;;;;;8.55;5.88;;;230.80;1715.20;;;;;;5044341;28;20075;-62
2023/03/28 11:43:40;;;;;;;10.93;5.97;;;231.00;1715.20;;;;;;5030728;28;20037;-61
2023/03/28 11:46:13;;;;;;;11.60;5.53;;;230.90;1689.60;;;;;;5047607;28;20033;-61
2023/03/28 11:48:54;;;;;;;11.70;8.25;;;230.80;1664.00;;;;;;5047695;28;20021;-61
2023/03/28 11:52:09;;;;;;;37.75;23.08;;;231.00;1689.60;;;;;;5047465;28;20036;-62
2023/03/28 11:54:47;;;;;;;9.45;5.75;;;230.90;1689.60;;;;;;5047563;28;20029;-62
2023/03/28 11:57:55;;;;;;;26.75;14.95;;;231.20;1664.00;;;;;;5048150;28;20112;-62
2023/03/28 12:00:44;;;;;;;17.70;15.50;;;231.30;1612.80;;;;;;5048609;28;20419;-61
2023/03/28 12:03:24;;;;;;;62.90;45.08;;;231.30;1587.20;;;;;;5050600;28;20414;-62
2023/03/28 12:05:56;;;;;;;12.68;7.30;;;231.10;1638.40;;;;;;5050566;28;20534;-60
2023/03/28 12:08:25;;;;;;;10.07;5.38;;;230.70;1664.00;;;;;;5051069;28;20593;-63
2023/03/28 12:10:56;;;;;;;5.90;4.53;;;230.60;1689.60;;;;;;5050474;28;20044;-62
2023/03/28 12:13:49;;;;;;;6.10;4.50;;;230.90;1664.00;;;;;;5050534;28;20060;-61
2023/03/28 12:16:20;;;;;;;12.15;9.05;;;231.20;1612.80;;;;;;5050944;28;20028;-62
2023/03/28 12:18:49;;;;;;;22.60;16.27;;;231.20;1612.80;;;;;;5050908;28;20025;-62
2023/03/28 12:21:14;;;;;;;13.90;9.25;;;256.20;1612.80;;;;;;5045375;28;20483;-63
2023/03/28 12:24:10;;;;;;;17.17;12.23;;;256.10;1587.20;;;;;;5043176;28;20021;-62
2023/03/28 12:27:03;;;;;;;14.10;9.38;;;256.00;1612.80;;;;;;5050274;28;20045;-62
2023/03/28 12:29:39;;;;;;;16.92;10.57;;;231.20;1664.00;;;;;;5050833;28;20067;-62
2023/03/28 12:32:33;;;;;;;16.55;10.07;;;231.00;1664.00;;;;;;5028508;28;20120;-63
2023/03/28 12:35:33;;;;;;;11.68;7.20;;;230.70;1664.00;;;;;;5030439;28;20455;-63
2023/03/28 12:38:30;;;;;;;12.10;8.07;;;230.90;1638.40;;;;;;5029119;28;20030;-62
2023/03/28 12:41:02;;;;;;;12.13;6.53;;;231.20;1612.80;;;;;;5048809;28;20035;-62